Time;durP1;ratioP1;P1;durP2;ratioP2;P2;SDS_P1;SDS_P2;PMS_P1;PMS_P2;Temp;Humidity;BMP_temperature;BMP_pressure;BME280_temperature;BME280_humidity;BME280_pressure;Samples;Min_cycle;Max_cycle;Signal;HPM_P1;HPM_P2
2022/08/11 00:00:05;;;;;;;27.10;13.60;;;;;;;23.93;63.09;98993.99;25043;1315;3026515;-60
2022/08/11 00:02:38;;;;;;;30.20;14.00;;;;;;;23.82;63.41;98996.34;25054;1315;3051141;-59
2022/08/11 00:05:12;;;;;;;23.40;14.10;;;;;;;23.67;63.56;98994.94;25082;1316;3029389;-60
2022/08/11 00:07:47;;;;;;;34.90;15.20;;;;;;;23.54;63.65;98997.84;25059;1316;3048294;-59
2022/08/11 00:10:21;;;;;;;27.30;14.60;;;;;;;23.52;64.11;98995.92;25053;1315;3053190;-60
2022/08/11 00:12:58;;;;;;;27.00;14.90;;;;;;;23.32;65.04;98994.91;25177;1316;3051090;-58
2022/08/11 00:15:36;;;;;;;22.40;13.60;;;;;;;23.30;64.07;98991.73;25055;1315;3071422;-62
2022/08/11 00:18:05;;;;;;;23.00;14.30;;;;;;;23.33;64.12;98995.54;25019;1316;3052039;-63
2022/08/11 00:20:38;;;;;;;30.10;14.80;;;;;;;23.32;63.48;98999.77;24987;1316;3026173;-58
2022/08/11 00:23:09;;;;;;;24.20;14.50;;;;;;;23.29;63.39;99001.58;25120;1313;3026629;-60
2022/08/11 00:25:50;;;;;;;31.40;14.60;;;;;;;23.27;62.33;98999.96;25100;1313;3027012;-56
2022/08/11 00:28:22;;;;;;;25.80;15.10;;;;;;;23.32;62.10;99003.33;25100;1316;3051980;-59
2022/08/11 00:30:52;;;;;;;22.00;13.60;;;;;;;23.36;61.75;99004.18;25192;1313;3026711;-59
2022/08/11 00:33:22;;;;;;;30.60;13.40;;;;;;;23.38;61.80;99002.65;25057;1316;3026564;-61
2022/08/11 00:35:51;;;;;;;21.70;13.00;;;;;;;23.37;61.89;99004.19;25081;1316;3050281;-56
2022/08/11 00:38:23;;;;;;;23.30;14.50;;;;;;;23.36;61.77;98999.65;25147;1313;3028832;-57
2022/08/11 00:40:58;;;;;;;29.00;14.70;;;;;;;23.35;61.71;98998.14;25069;1316;3056583;-60
2022/08/11 00:43:46;;;;;;;23.60;14.20;;;;;;;23.31;61.67;99000.21;25075;1316;3047968;-56
2022/08/11 00:46:31;;;;;;;27.20;16.00;;;;;;;23.26;61.74;99004.60;25045;1315;3055238;-57
2022/08/11 00:49:05;;;;;;;31.50;13.90;;;;;;;23.25;61.77;99003.23;25122;1313;3053817;-60
2022/08/11 00:52:08;;;;;;;28.60;14.40;;;;;;;23.27;61.08;99002.14;25072;1315;3071380;-60
2022/08/11 00:54:49;;;;;;;37.60;15.80;;;;;;;23.27;61.08;99001.10;25054;1313;3051149;-58
2022/08/11 00:57:25;;;;;;;28.40;14.80;;;;;;;23.25;61.65;99004.92;25122;1315;3052176;-60
2022/08/11 01:00:09;;;;;;;26.10;14.50;;;;;;;23.24;61.38;99006.97;25102;1316;3052672;-61
2022/08/11 01:03:04;;;;;;;26.60;14.90;;;;;;;23.15;61.35;98998.05;25042;1316;3058903;-57
2022/08/11 01:05:55;;;;;;;37.50;15.20;;;;;;;23.14;61.29;99002.17;25105;1314;3050216;-58
2022/08/11 01:08:39;;;;;;;33.10;17.30;;;;;;;23.08;61.10;98990.86;25049;1313;3052358;-59
2022/08/11 01:11:08;;;;;;;;;;;;;;;23.07;61.64;98990.59;25054;1316;3053731;-58
2022/08/11 01:13:56;;;;;;;28.30;15.90;;;;;;;23.02;61.51;98988.46;25106;1313;3026638;-58
2022/08/11 01:16:49;;;;;;;23.90;15.40;;;;;;;23.04;61.20;98987.42;25082;1316;3056312;-58
2022/08/11 01:19:40;;;;;;;30.20;14.50;;;;;;;23.05;60.99;98985.16;25061;1313;3055552;-59
2022/08/11 01:22:12;;;;;;;27.90;14.70;;;;;;;23.01;60.51;98979.02;25117;1316;3071222;-60
2022/08/11 01:24:59;;;;;;;27.70;14.00;;;;;;;23.02;60.00;98976.77;25086;1316;3026747;-57
2022/08/11 01:28:26;;;;;;;28.50;14.60;;;;;;;23.02;59.98;98976.23;25051;1313;3055235;-60
2022/08/11 01:31:26;;;;;;;25.70;14.10;;;;;;;23.01;59.70;98973.66;24934;1318;3055431;-58
2022/08/11 01:34:07;;;;;;;27.60;13.80;;;;;;;22.98;59.56;98976.17;24920;1319;3058792;-61
2022/08/11 01:36:37;;;;;;;34.50;14.90;;;;;;;22.97;59.39;98975.17;25033;1315;3052370;-61
2022/08/11 01:39:35;;;;;;;25.70;14.20;;;;;;;22.99;59.47;98978.61;25096;1313;3026459;-60
2022/08/11 01:45:36;;;;;;;20.60;13.50;;;;;;;23.01;58.42;98974.60;25060;1313;3052005;-57
2022/08/11 01:48:08;;;;;;;20.00;14.10;;;;;;;23.05;58.45;98975.04;24366;1313;4494536;-58
2022/08/11 01:51:02;;;;;;;32.90;14.00;;;;;;;23.08;58.45;98976.75;25109;1316;3026345;-62
2022/08/11 01:53:52;;;;;;;23.30;13.80;;;;;;;23.09;58.34;98983.86;25025;1316;3071547;-60
2022/08/11 01:56:43;;;;;;;25.50;12.90;;;;;;;23.10;58.20;98984.70;25049;1316;3051478;-58
2022/08/11 01:59:28;;;;;;;32.90;13.50;;;;;;;23.10;57.64;98983.88;25104;1313;3054573;-59
2022/08/11 02:02:44;;;;;;;22.50;13.00;;;;;;;23.11;57.69;98983.14;25070;1313;3055746;-59
2022/08/11 02:05:26;;;;;;;34.90;13.20;;;;;;;23.11;56.99;98984.20;25102;1315;3058941;-54
2022/08/11 02:07:59;;;;;;;28.80;13.00;;;;;;;23.09;56.88;98984.81;25034;1315;3051787;-60
2022/08/11 02:13:51;;;;;;;23.20;12.00;;;;;;;23.09;56.99;98990.86;25055;1316;3054370;-62
2022/08/11 02:16:37;;;;;;;23.70;12.20;;;;;;;23.09;57.11;98992.55;25136;1313;3068674;-58
2022/08/11 02:25:27;;;;;;;18.00;10.80;;;;;;;23.08;56.74;99000.34;25068;1316;3055421;-56
2022/08/11 02:28:41;;;;;;;22.60;12.20;;;;;;;23.06;56.75;99000.18;25109;1316;3057652;-60
2022/08/11 02:34:42;;;;;;;18.10;11.50;;;;;;;23.08;56.63;99001.70;25023;1316;3055460;-59
2022/08/11 02:37:32;;;;;;;18.30;11.40;;;;;;;23.06;56.62;99001.14;25077;1316;3051596;-58
2022/08/11 02:40:14;;;;;;;21.20;10.70;;;;;;;23.07;56.49;99004.45;25019;1316;3071283;-59
2022/08/11 02:42:43;;;;;;;18.90;10.50;;;;;;;23.10;56.32;99004.36;25089;1316;3049214;-57
2022/08/11 02:45:28;;;;;;;21.70;11.30;;;;;;;23.09;56.48;99007.23;25044;1316;3026778;-61
2022/08/11 02:51:34;;;;;;;26.20;10.60;;;;;;;23.09;56.06;99015.55;25018;1316;3051189;-61
2022/08/11 02:54:32;;;;;;;23.10;10.50;;;;;;;23.14;56.07;99020.69;25042;1316;3055200;-62
2022/08/11 02:57:06;;;;;;;22.10;10.50;;;;;;;23.15;55.97;99012.73;25024;1316;3055491;-60
2022/08/11 02:59:49;;;;;;;19.90;11.20;;;;;;;23.16;55.82;99017.05;25077;1315;3055824;-57
2022/08/11 03:02:36;;;;;;;17.90;11.70;;;;;;;23.19;56.18;99012.59;25081;1316;3053496;-58
2022/08/11 03:05:10;;;;;;;20.30;10.90;;;;;;;23.17;56.74;99021.92;25138;1316;3053460;-56
2022/08/11 03:07:39;;;;;;;;;;;;;;;23.14;56.97;99019.78;25096;1316;3052036;-59
2022/08/11 03:10:41;;;;;;;17.30;10.80;;;;;;;23.10;57.31;99027.08;25023;1316;3026813;-59
2022/08/11 03:19:17;;;;;;;17.50;9.70;;;;;;;23.12;56.44;99028.02;25065;1316;3071173;-58
2022/08/11 03:21:58;;;;;;;19.40;10.30;;;;;;;23.14;55.99;99030.70;25098;1316;3052448;-61
2022/08/11 03:24:36;;;;;;;21.90;10.50;;;;;;;23.17;55.55;99034.81;25047;1315;3055421;-59
2022/08/11 03:27:35;;;;;;;18.60;9.70;;;;;;;23.23;55.53;99036.43;25051;1316;3055533;-62
2022/08/11 03:30:12;;;;;;;13.20;9.80;;;;;;;23.30;55.30;99047.73;25061;1315;3057572;-60
2022/08/11 03:36:45;;;;;;;17.50;10.10;;;;;;;23.37;54.48;99059.04;25053;1313;3055213;-61
2022/08/11 03:39:51;;;;;;;13.60;10.00;;;;;;;23.45;54.64;99058.40;25089;1313;3054023;-56
2022/08/11 03:42:26;;;;;;;14.80;9.90;;;;;;;23.53;53.83;99054.79;25043;1316;3071152;-61
2022/08/11 03:45:18;;;;;;;13.30;9.90;;;;;;;23.59;53.62;99051.11;25105;1312;3051627;-59
2022/08/11 03:48:04;;;;;;;25.10;9.90;;;;;;;23.63;53.20;99052.45;25031;1313;3054725;-59
2022/08/11 03:50:57;;;;;;;15.40;10.30;;;;;;;23.66;53.03;99053.41;25036;1313;3055296;-58
2022/08/11 03:54:00;;;;;;;23.60;10.70;;;;;;;23.71;52.96;99055.63;25094;1313;3056564;-58
2022/08/11 03:57:07;;;;;;;19.10;10.30;;;;;;;23.78;52.99;99053.55;25051;1315;3052591;-57
2022/08/11 03:59:50;;;;;;;19.10;10.10;;;;;;;23.81;52.71;99048.48;25140;1315;3056141;-59
2022/08/11 04:03:07;;;;;;;16.80;10.40;;;;;;;23.81;52.74;99049.59;25046;1313;3050638;-58
2022/08/11 04:06:08;;;;;;;16.20;10.50;;;;;;;23.84;52.51;99055.45;25006;1319;3071704;-61
2022/08/11 04:08:53;;;;;;;21.60;10.60;;;;;;;23.84;52.71;99048.47;25126;1313;3049821;-62
2022/08/11 04:11:49;;;;;;;16.00;10.30;;;;;;;23.88;52.67;99048.02;25101;1313;3052938;-60
2022/08/11 04:17:47;;;;;;;18.90;10.70;;;;;;;23.94;52.42;99052.33;25106;1313;3058794;-56
2022/08/11 04:20:50;;;;;;;15.10;10.80;;;;;;;24.03;52.17;99052.53;25091;1313;3052767;-58
2022/08/11 04:23:28;;;;;;;19.80;11.00;;;;;;;24.09;51.79;99050.95;25157;1313;3055528;-57
2022/08/11 04:26:12;;;;;;;14.90;11.10;;;;;;;24.11;51.51;99051.13;25124;1313;3053905;-59
2022/08/11 04:28:57;;;;;;;24.70;12.10;;;;;;;24.12;51.47;99043.33;25089;1316;3069303;-58
2022/08/11 04:32:03;;;;;;;22.30;11.30;;;;;;;24.18;51.15;99045.67;25092;1316;3049642;-60
2022/08/11 04:34:36;;;;;;;24.20;12.00;;;;;;;24.21;51.18;99045.98;25104;1315;3052123;-60
2022/08/11 04:37:33;;;;;;;25.50;11.70;;;;;;;24.20;51.20;99047.91;25072;1313;3026469;-64
2022/08/11 04:40:25;;;;;;;22.50;11.50;;;;;;;24.18;50.94;99043.11;25171;1316;3058737;-58
2022/08/11 04:43:21;;;;;;;23.10;11.80;;;;;;;24.18;50.85;99047.27;25192;1316;3050168;-57
2022/08/11 04:46:12;;;;;;;23.20;11.50;;;;;;;24.20;51.05;99051.05;25091;1315;3055848;-61
2022/08/11 05:02:16;;;;;;;26.40;13.00;;;;;;;24.37;51.09;99049.77;25111;1313;3051113;-59
2022/08/11 05:05:32;;;;;;;25.10;13.40;;;;;;;24.41;51.12;99051.45;25052;1314;3059498;-60
2022/08/11 05:08:26;;;;;;;24.90;13.60;;;;;;;24.44;51.26;99050.53;25033;1313;3052417;-64
2022/08/11 05:11:16;;;;;;;24.40;13.70;;;;;;;24.51;51.03;99055.33;25152;1315;3053218;-62
2022/08/11 05:37:37;;;;;;;24.80;14.30;;;;;;;25.07;50.36;99060.45;25081;1316;3054276;-67
2022/08/11 05:57:20;;;;;;;34.30;14.20;;;;;;;25.10;50.31;99080.48;25088;1315;3055668;-62
2022/08/11 05:59:49;;;;;;;29.60;14.60;;;;;;;25.09;50.41;99084.65;25048;1315;3054172;-61
2022/08/11 06:02:18;;;;;;;23.80;14.60;;;;;;;25.08;50.61;99079.35;25012;1315;3027600;-61
2022/08/11 06:04:54;;;;;;;30.00;14.10;;;;;;;25.07;50.18;99084.71;24946;1318;3054919;-63
2022/08/11 06:07:29;;;;;;;26.70;13.30;;;;;;;25.08;49.73;99086.71;25044;1316;3053299;-67
2022/08/11 06:09:58;;;;;;;26.10;14.20;;;;;;;25.07;49.34;99086.13;25098;1315;3069223;-68
2022/08/11 06:12:32;;;;;;;30.50;14.30;;;;;;;25.08;49.29;99087.62;25065;1316;3026443;-68
2022/08/11 06:15:06;;;;;;;24.70;14.00;;;;;;;25.12;49.06;99091.81;25068;1315;3054148;-66
2022/08/11 06:17:44;;;;;;;25.60;13.50;;;;;;;25.08;49.16;99089.52;25092;1316;3070805;-66
2022/08/11 06:20:14;;;;;;;24.40;14.40;;;;;;;24.95;49.64;99090.38;25035;1316;3049369;-72
2022/08/11 06:22:44;;;;;;;31.20;14.40;;;;;;;24.94;50.65;99088.31;25087;1313;3026615;-67
2022/08/11 06:25:14;;;;;;;27.20;14.30;;;;;;;24.89;51.17;99090.58;25126;1313;3026110;-58
2022/08/11 06:27:44;;;;;;;30.40;14.90;;;;;;;24.83;51.61;99085.45;25095;1313;3027789;-68
2022/08/11 06:30:12;;;;;;;27.30;15.50;;;;;;;24.81;51.72;99090.98;25041;1312;3026691;-67
2022/08/11 06:32:45;;;;;;;31.50;14.80;;;;;;;24.82;51.50;99085.61;25101;1313;3054387;-70
2022/08/11 06:35:35;;;;;;;30.70;15.60;;;;;;;24.82;51.42;99092.60;25119;1313;3026548;-61
2022/08/11 06:38:05;;;;;;;26.40;14.30;;;;;;;24.82;51.34;99101.61;25118;1316;3048897;-64
2022/08/11 06:40:34;;;;;;;31.20;15.00;;;;;;;24.79;51.61;99100.80;25156;1313;3026718;-66
2022/08/11 06:43:23;;;;;;;29.30;15.10;;;;;;;24.78;51.72;99105.96;25088;1313;3026324;-65
2022/08/11 06:45:54;;;;;;;24.60;14.30;;;;;;;24.75;51.92;99111.88;25083;1316;3052802;-62
2022/08/11 06:48:23;;;;;;;29.20;15.80;;;;;;;24.76;52.08;99115.53;25173;1316;3026571;-73
2022/08/11 06:51:13;;;;;;;28.30;15.40;;;;;;;24.75;51.96;99115.52;25112;1316;3027364;-78
2022/08/11 06:53:44;;;;;;;26.80;14.40;;;;;;;24.70;52.06;99123.41;25215;1313;3050832;-70
2022/08/11 07:02:07;;;;;;;31.00;16.70;;;;;;;24.33;57.22;99122.70;25219;1316;3071836;-64
2022/08/11 07:04:48;;;;;;;35.40;16.60;;;;;;;24.25;57.17;99116.67;25241;1313;3051942;-67
2022/08/11 07:16:01;;;;;;;28.80;17.60;;;;;;;24.17;56.06;99136.08;25883;1315;3050263;-75
2022/08/11 07:29:59;;;;;;;32.30;17.00;;;;;;;24.30;54.93;99142.36;25076;1318;3052336;-66
2022/08/11 07:32:29;;;;;;;37.90;16.80;;;;;;;24.34;54.94;99140.13;25146;1315;3026436;-73
2022/08/11 07:35:06;;;;;;;30.60;17.60;;;;;;;24.34;55.14;99136.63;25126;1315;3026526;-66
2022/08/11 07:37:35;;;;;;;26.80;17.20;;;;;;;24.41;54.58;99137.77;25076;1316;3050808;-69
2022/08/11 07:40:04;;;;;;;29.60;17.80;;;;;;;24.47;54.32;99133.40;25065;1316;3026518;-69
2022/08/11 07:42:36;;;;;;;33.70;17.80;;;;;;;24.53;54.07;99132.35;25100;1316;3059003;-65
2022/08/11 07:53:29;;;;;;;31.40;19.00;;;;;;;24.88;53.62;99131.55;25066;1316;3071761;-63
2022/08/11 07:56:01;;;;;;;35.00;17.40;;;;;;;25.02;53.29;99129.81;25076;1316;3026844;-67
2022/08/11 08:18:14;;;;;;;39.00;19.80;;;;;;;25.62;49.96;99132.55;25078;1316;3055483;-60
2022/08/11 08:20:51;;;;;;;41.80;20.20;;;;;;;25.73;49.73;99134.55;25034;1316;3026415;-61
2022/08/11 08:23:33;;;;;;;43.50;20.00;;;;;;;25.80;49.58;99133.50;25106;1315;3051150;-63
2022/08/11 08:26:03;;;;;;;31.10;19.50;;;;;;;25.89;49.78;99135.77;25134;1315;3055544;-64
2022/08/11 08:28:32;;;;;;;34.40;19.70;;;;;;;26.01;49.22;99132.43;25074;1316;3027388;-66
2022/08/11 08:31:02;;;;;;;35.40;20.10;;;;;;;26.07;49.36;99130.02;25095;1316;3026953;-61
2022/08/11 08:33:31;;;;;;;38.20;20.10;;;;;;;26.15;49.61;99128.23;25009;1316;3055407;-58
2022/08/11 08:36:13;;;;;;;41.20;21.10;;;;;;;26.21;49.13;99128.37;25089;1316;3026879;-62
2022/08/11 08:38:47;;;;;;;38.80;20.50;;;;;;;26.23;48.67;99123.83;25098;1316;3052463;-60
2022/08/11 08:41:27;;;;;;;45.40;20.80;;;;;;;26.31;48.75;99118.79;25187;1316;3052272;-60
2022/08/11 08:43:58;;;;;;;31.90;20.10;;;;;;;26.43;48.36;99117.36;25274;1315;3051723;-63
2022/08/11 08:46:34;;;;;;;44.20;20.40;;;;;;;26.48;47.90;99113.30;25018;1316;3028547;-61
2022/08/11 08:49:03;;;;;;;44.70;20.40;;;;;;;26.58;47.83;99113.06;25045;1316;3048339;-58
2022/08/11 08:51:34;;;;;;;46.50;21.70;;;;;;;26.72;47.65;99108.83;25121;1316;3026043;-60
2022/08/11 08:54:16;;;;;;;42.40;20.70;;;;;;;26.88;47.13;99107.38;25066;1315;3069576;-59
2022/08/11 08:56:46;;;;;;;39.90;22.10;;;;;;;26.94;47.20;99103.23;25144;1314;3049431;-62
2022/08/11 08:59:15;;;;;;;43.70;22.80;;;;;;;27.10;47.01;99104.58;25016;1315;3027670;-63
2022/08/11 09:01:52;;;;;;;39.60;23.20;;;;;;;27.20;46.74;99100.28;25102;1315;3026613;-60
2022/08/11 09:04:21;;;;;;;47.70;23.40;;;;;;;27.29;46.80;99105.29;25008;1319;3049165;-58
2022/08/11 09:06:51;;;;;;;42.30;22.50;;;;;;;27.46;46.71;99099.80;25065;1316;3026303;-58
2022/08/11 09:09:22;;;;;;;38.50;22.10;;;;;;;27.63;46.55;99102.60;25144;1316;3027789;-55
2022/08/11 09:11:54;;;;;;;45.30;23.00;;;;;;;27.80;46.62;99104.48;25053;1316;3026510;-56
2022/08/11 09:17:22;;;;;;;44.50;22.20;;;;;;;28.35;45.48;99106.08;25095;1316;3055735;-58
2022/08/11 09:19:59;;;;;;;45.40;23.00;;;;;;;28.57;45.22;99104.10;25090;1316;3026797;-55
2022/08/11 09:28:10;;;;;;;44.30;23.20;;;;;;;28.95;44.22;99101.06;25057;1316;3054997;-59
2022/08/11 09:30:41;;;;;;;40.30;22.70;;;;;;;28.97;44.45;99104.80;25097;1316;3026512;-59
2022/08/11 09:33:13;;;;;;;42.50;22.30;;;;;;;28.95;44.53;99104.80;25065;1315;3026741;-59
2022/08/11 09:35:45;;;;;;;39.10;22.80;;;;;;;29.01;44.19;99108.54;25073;1315;3027454;-57
2022/08/11 09:41:05;;;;;;;41.30;24.10;;;;;;;29.28;44.19;99107.85;25051;1316;3053992;-56
2022/08/11 09:46:34;;;;;;;40.40;24.40;;;;;;;29.50;44.06;99103.23;25322;1315;3049365;-60
2022/08/11 09:49:03;;;;;;;45.40;24.70;;;;;;;29.55;43.91;99100.95;25064;1316;3026556;-59
2022/08/11 09:51:32;;;;;;;43.60;25.00;;;;;;;29.61;43.60;99098.77;25144;1315;3026568;-60
2022/08/11 09:54:05;;;;;;;51.10;25.80;;;;;;;29.69;42.81;99100.85;25051;1316;3049222;-61
2022/08/11 09:59:23;;;;;;;52.00;25.80;;;;;;;29.92;41.69;99094.12;25012;1315;3055436;-60
2022/08/11 10:01:57;;;;;;;51.40;28.40;;;;;;;29.96;41.50;99094.45;25122;1314;3026488;-61
2022/08/11 10:04:34;;;;;;;46.70;27.40;;;;;;;30.09;41.82;99094.36;25091;1315;3052407;-61
2022/08/11 10:07:09;;;;;;;55.80;27.30;;;;;;;30.23;41.90;99092.98;25079;1316;3052358;-61
2022/08/11 10:09:41;;;;;;;50.40;27.10;;;;;;;30.36;41.64;99098.20;25091;1315;3057676;-62
2022/08/11 10:12:12;;;;;;;44.30;26.50;;;;;;;30.57;41.31;99101.88;25097;1319;3026148;-61
2022/08/11 10:17:35;;;;;;;44.50;27.00;;;;;;;30.88;40.43;99086.80;25054;1316;3053972;-61
2022/08/11 10:20:06;;;;;;;41.90;26.60;;;;;;;30.97;40.13;99084.23;25088;1316;3026537;-61
2022/08/11 10:28:11;;;;;;;47.90;25.70;;;;;;;31.40;39.61;99092.14;25055;1319;3054761;-61
2022/08/11 10:36:17;;;;;;;47.60;27.20;;;;;;;31.23;37.96;99088.24;25015;1316;3056040;-59
2022/08/11 10:38:51;;;;;;;44.00;26.70;;;;;;;31.25;37.11;99088.04;25065;1318;3026584;-59
2022/08/11 10:44:07;;;;;;;53.30;28.80;;;;;;;31.70;35.92;99083.88;25036;1315;3048860;-59
2022/08/11 10:49:25;;;;;;;47.50;28.00;;;;;;;32.04;34.93;99085.89;25033;1315;3071859;-60
2022/08/11 11:00:18;;;;;;;45.40;25.50;;;;;;;32.57;33.80;99076.33;25084;1316;3058644;-63
2022/08/11 11:02:47;;;;;;;48.60;26.40;;;;;;;32.51;33.34;99083.80;24961;1318;3028682;-63
2022/08/11 11:05:26;;;;;;;41.70;26.00;;;;;;;32.51;33.60;99084.65;25000;1319;3054178;-63
2022/08/11 11:08:51;;;;;;;53.10;25.50;;;;;;;32.61;33.55;99085.42;25062;1316;3059027;-62
2022/08/11 11:10:56;;;;;;;41.60;25.50;;;;;;;32.78;32.84;99085.66;25092;1316;3050293;-63
2022/08/11 11:19:02;;;;;;;39.80;25.20;;;;;;;33.02;32.91;99086.84;25007;1315;3071920;-59
2022/08/11 11:21:31;;;;;;;43.50;24.80;;;;;;;32.96;32.90;99088.55;25045;1319;3026521;-61
2022/08/11 11:24:10;;;;;;;40.00;24.80;;;;;;;33.09;32.71;99093.35;25036;1316;3026393;-60
2022/08/11 11:26:55;;;;;;;43.60;25.60;;;;;;;33.24;32.42;99092.10;25098;1316;3055385;-60
2022/08/11 11:29:32;;;;;;;46.80;23.60;;;;;;;33.39;32.95;99092.86;25073;1316;3058683;-58
2022/08/11 11:32:26;;;;;;;39.80;24.00;;;;;;;33.55;32.85;99090.73;25112;1316;3052592;-59
2022/08/11 11:35:07;;;;;;;38.20;23.50;;;;;;;33.66;32.43;99093.35;25066;1319;3056355;-58
2022/08/11 11:37:38;;;;;;;38.20;22.90;;;;;;;33.63;32.82;99099.20;25095;1316;3054299;-59
2022/08/11 11:40:09;;;;;;;37.50;22.80;;;;;;;33.66;32.83;99100.39;25013;1316;3026501;-62
2022/08/11 11:42:40;;;;;;;34.80;21.90;;;;;;;33.77;32.80;99102.27;25067;1316;3026530;-67
2022/08/11 11:45:10;;;;;;;38.60;22.20;;;;;;;34.02;32.48;99106.92;25086;1316;3028126;-65
2022/08/11 11:47:39;;;;;;;38.00;23.30;;;;;;;33.98;32.64;99108.73;25060;1316;3026918;-65
2022/08/11 11:50:08;;;;;;;34.80;21.50;;;;;;;34.06;32.74;99103.09;25091;1315;3026557;-64
2022/08/11 11:52:37;;;;;;;33.90;22.40;;;;;;;34.19;32.01;99105.56;25042;1317;3054511;-64
2022/08/11 11:55:07;;;;;;;32.20;21.70;;;;;;;34.11;32.50;99105.27;25037;1316;3026497;-65
2022/08/11 12:03:11;;;;;;;29.90;21.30;;;;;;;34.43;32.54;99112.24;25030;1316;3055454;-67
2022/08/11 12:05:40;;;;;;;38.60;20.30;;;;;;;34.44;32.72;99103.53;25086;1315;3026568;-67
2022/08/11 12:08:17;;;;;;;31.50;20.70;;;;;;;34.39;32.61;99104.35;25117;1316;3052435;-65
2022/08/11 12:13:46;;;;;;;40.10;21.00;;;;;;;34.72;32.36;99102.49;25121;1315;3058450;-64
2022/08/11 12:16:16;;;;;;;34.20;21.20;;;;;;;34.71;32.36;99107.08;25060;1315;3026608;-69
2022/08/11 12:18:46;;;;;;;33.30;20.10;;;;;;;34.73;32.27;99101.04;25104;1316;3026824;-62
2022/08/11 12:21:15;;;;;;;41.40;20.40;;;;;;;34.75;32.34;99099.86;25076;1316;3027419;-68
2022/08/11 12:29:18;;;;;;;36.60;21.10;;;;;;;35.01;31.60;99090.06;25098;1316;3053721;-65
2022/08/11 12:31:47;;;;;;;34.30;20.90;;;;;;;35.03;31.86;99092.64;25002;1315;3027139;-65
2022/08/11 12:34:16;;;;;;;40.30;21.50;;;;;;;35.13;31.95;99086.81;25058;1318;3026989;-65
2022/08/11 12:36:52;;;;;;;36.40;21.00;;;;;;;35.02;32.13;99088.44;25039;1316;3053306;-68
2022/08/11 12:53:27;;;;;;;31.90;20.20;;;;;;;35.20;31.73;99077.94;25102;1316;3051155;-65
2022/08/11 12:58:46;;;;;;;33.20;20.50;;;;;;;35.14;31.65;99068.58;25046;1316;3054033;-65
2022/08/11 13:06:51;;;;;;;32.60;20.10;;;;;;;35.36;31.22;99072.36;25059;1316;3054899;-63
2022/08/11 13:09:20;;;;;;;34.40;20.60;;;;;;;35.46;31.09;99071.38;25118;1316;3026126;-68
2022/08/11 13:14:37;;;;;;;31.10;20.70;;;;;;;35.55;30.59;99070.05;24951;1318;3054941;-69
2022/08/11 13:17:21;;;;;;;34.10;19.60;;;;;;;35.56;30.85;99072.13;25087;1316;3026390;-67
2022/08/11 13:19:50;;;;;;;38.40;20.30;;;;;;;35.58;30.97;99073.11;25055;1316;3049267;-69
2022/08/11 13:22:20;;;;;;;36.30;20.70;;;;;;;35.57;30.96;99070.98;25065;1319;3026791;-71
2022/08/11 13:24:50;;;;;;;34.60;19.40;;;;;;;35.63;31.07;99069.09;25072;1315;3071431;-67
2022/08/11 13:27:19;;;;;;;36.90;19.50;;;;;;;35.70;30.75;99067.08;25060;1315;3026917;-65
2022/08/11 13:29:49;;;;;;;34.80;19.20;;;;;;;35.70;30.86;99071.89;25019;1316;3029118;-68
2022/08/11 13:32:19;;;;;;;33.80;18.70;;;;;;;35.71;30.73;99067.48;25077;1316;3026460;-68
2022/08/11 13:34:48;;;;;;;27.40;18.80;;;;;;;35.76;30.55;99067.27;25070;1316;3028287;-66
2022/08/11 13:37:17;;;;;;;31.40;18.80;;;;;;;35.83;30.21;99064.30;25096;1316;3027733;-65
2022/08/11 13:39:46;;;;;;;33.90;20.00;;;;;;;35.74;30.40;99064.74;25071;1316;3052699;-65
2022/08/11 13:42:18;;;;;;;30.90;19.20;;;;;;;35.87;30.03;99061.08;25029;1316;3026876;-68
2022/08/11 13:44:47;;;;;;;32.00;18.50;;;;;;;36.04;29.98;99060.79;25061;1316;3055019;-67
2022/08/11 13:47:14;;;;;;;30.60;19.30;;;;;;;35.83;30.19;99059.98;24330;1316;4661008;-66
2022/08/11 13:49:43;;;;;;;36.30;20.00;;;;;;;35.83;30.35;99062.77;25051;1316;3026584;-66
2022/08/11 13:52:14;;;;;;;35.80;19.40;;;;;;;35.71;30.45;99060.59;25055;1316;3026434;-69
2022/08/11 13:54:45;;;;;;;35.30;19.40;;;;;;;35.49;30.93;99058.95;25063;1316;3068992;-65
2022/08/11 13:57:17;;;;;;;28.10;17.80;;;;;;;35.27;31.27;99058.72;25094;1315;3026673;-68
2022/08/11 13:59:47;;;;;;;26.20;18.10;;;;;;;35.12;31.43;99056.02;25109;1316;3027094;-68
2022/08/11 14:02:16;;;;;;;30.00;18.90;;;;;;;34.96;31.78;99050.64;25068;1316;3026396;-65
2022/08/11 14:04:53;;;;;;;29.40;19.50;;;;;;;35.15;31.66;99048.50;25061;1316;3028357;-67
2022/08/11 14:07:24;;;;;;;32.90;18.80;;;;;;;35.41;31.01;99054.20;25111;1316;3048841;-67
2022/08/11 14:09:57;;;;;;;34.00;19.00;;;;;;;35.51;30.85;99051.02;25111;1316;3026504;-67
2022/08/11 14:15:23;;;;;;;31.90;18.20;;;;;;;35.67;30.69;99039.21;25030;1316;3071126;-67
2022/08/11 14:18:00;;;;;;;33.60;18.70;;;;;;;35.88;30.09;99036.48;25072;1316;3049716;-65
2022/08/11 14:23:26;;;;;;;30.40;18.80;;;;;;;35.52;30.81;99029.52;25135;1316;3052568;-71
2022/08/11 14:28:43;;;;;;;31.10;19.40;;;;;;;35.34;31.29;99029.98;25042;1315;3051662;-66
2022/08/11 14:31:15;;;;;;;35.50;20.00;;;;;;;35.43;30.87;99029.36;25111;1316;3029713;-65
2022/08/11 14:33:44;;;;;;;32.60;19.40;;;;;;;35.39;30.89;99029.23;25130;1316;3058953;-67
2022/08/11 14:36:13;;;;;;;30.40;20.20;;;;;;;35.28;31.27;99028.52;25072;1315;3026917;-71
2022/08/11 14:38:43;;;;;;;29.60;19.00;;;;;;;35.29;31.38;99020.99;24952;1319;3051106;-66
2022/08/11 14:47:05;;;;;;;30.20;18.60;;;;;;;35.71;30.55;99016.83;24968;1316;3052358;-64
2022/08/11 14:49:36;;;;;;;34.70;19.20;;;;;;;35.77;30.03;99008.30;25100;1316;3058913;-65
2022/08/11 14:52:14;;;;;;;29.60;19.40;;;;;;;35.88;30.03;99008.47;25125;1316;3026290;-65
2022/08/11 14:57:37;;;;;;;36.40;19.40;;;;;;;36.12;29.60;99001.16;25046;1316;3054585;-61
2022/08/11 15:00:08;;;;;;;31.90;18.90;;;;;;;36.12;29.88;98997.55;25112;1316;3028007;-67
2022/08/11 15:05:26;;;;;;;33.10;19.30;;;;;;;36.30;28.99;98988.85;25098;1315;3055394;-63
2022/08/11 15:07:55;;;;;;;31.30;20.40;;;;;;;36.35;28.71;98991.21;25099;1315;3026556;-62
2022/08/11 15:12:16;;;;;;;35.50;19.40;;;;;;;36.52;28.51;98991.80;31484;1319;3026809;-63
2022/08/11 15:17:34;;;;;;;38.20;19.60;;;;;;;36.73;28.12;98993.23;25048;1319;3054876;-63
2022/08/11 15:25:42;;;;;;;30.20;19.40;;;;;;;36.48;28.12;98996.01;24660;1316;3053588;-61
2022/08/11 15:39:31;;;;;;;30.90;17.60;;;;;;;35.63;28.99;98987.95;25183;1312;3068692;-61
2022/08/11 15:47:56;;;;;;;31.50;18.60;;;;;;;34.93;30.38;98996.74;25049;1316;3055395;-66
2022/08/11 15:50:28;;;;;;;31.60;18.50;;;;;;;34.71;30.76;98995.06;25043;1313;3056484;-61
2022/08/11 15:53:06;;;;;;;31.80;18.60;;;;;;;34.64;30.90;98995.64;25077;1313;3026461;-59
2022/08/11 15:55:35;;;;;;;37.30;18.60;;;;;;;34.24;31.14;98997.67;25101;1313;3054247;-61
2022/08/11 16:06:55;;;;;;;31.70;18.20;;;;;;;33.60;32.45;99009.25;25099;1315;3053149;-65
2022/08/11 16:09:28;;;;;;;26.30;17.50;;;;;;;33.58;32.57;99012.11;25143;1313;3069047;-63
2022/08/11 16:11:59;;;;;;;;;;;;;;;33.39;32.55;99012.67;25046;1313;3026338;-65
2022/08/11 16:17:18;;;;;;;36.70;16.80;;;;;;;32.59;34.04;99017.03;25119;1313;3054997;-60
2022/08/11 16:19:48;;;;;;;29.80;18.10;;;;;;;32.34;34.55;99019.36;25128;1313;3026768;-61
2022/08/11 16:22:28;;;;;;;32.10;18.20;;;;;;;32.19;34.71;99023.52;25032;1316;3026690;-61
2022/08/11 16:24:57;;;;;;;28.20;17.80;;;;;;;31.97;35.30;99026.27;25048;1315;3052945;-61
2022/08/11 16:27:26;;;;;;;26.90;16.50;;;;;;;31.71;35.85;99025.41;25103;1313;3026507;-61
2022/08/11 16:29:55;;;;;;;32.70;16.40;;;;;;;31.47;36.33;99030.58;25049;1313;3051341;-64
2022/08/11 16:32:25;;;;;;;26.60;16.30;;;;;;;31.33;36.61;99032.95;25098;1313;3026688;-62
2022/08/11 16:40:33;;;;;;;25.30;16.40;;;;;;;30.99;37.01;99039.30;25057;1313;3056020;-62